Time;durP1;ratioP1;P1;durP2;ratioP2;P2;SDS_P1;SDS_P2;PMS_P1;PMS_P2;Temp;Humidity;BMP_temperature;BMP_pressure;BME280_temperature;BME280_humidity;BME280_pressure;Samples;Min_cycle;Max_cycle;Signal;HPM_P1;HPM_P2
2023/07/11 00:01:47;;;;;;;6.70;3.10;;;;;;;18.42;67.05;100407.98;102418;279;105438;-55
2023/07/11 00:04:25;;;;;;;7.00;3.00;;;;;;;18.39;67.15;100403.72;102488;279;114031;-55
2023/07/11 00:07:06;;;;;;;7.30;3.20;;;;;;;18.43;67.53;100388.10;102370;279;96677;-55
2023/07/11 00:09:51;;;;;;;4.50;3.50;;;;;;;18.43;67.68;100380.93;102442;279;98443;-55
2023/07/11 00:12:28;;;;;;;8.90;4.80;;;;;;;18.48;67.43;100379.66;102393;280;120708;-54
2023/07/11 00:15:11;;;;;;;6.00;4.00;;;;;;;18.46;67.35;100382.33;102441;279;105278;-56
2023/07/11 00:17:51;;;;;;;8.60;4.80;;;;;;;18.39;67.77;100390.25;102439;279;113925;-56
2023/07/11 00:20:31;;;;;;;7.20;4.20;;;;;;;18.24;68.66;100402.02;102447;279;93819;-56
2023/07/11 00:23:06;;;;;;;10.50;5.40;;;;;;;18.18;68.44;100412.89;102417;279;96224;-56
2023/07/11 00:25:49;;;;;;;6.60;4.20;;;;;;;18.08;68.90;100413.70;102425;279;120878;-54
2023/07/11 00:28:29;;;;;;;8.50;5.20;;;;;;;18.02;69.43;100426.17;102431;279;104384;-54
2023/07/11 00:31:08;;;;;;;9.20;5.10;;;;;;;17.94;69.79;100431.54;102409;279;113924;-55
2023/07/11 00:33:49;;;;;;;8.50;4.70;;;;;;;17.81;70.61;100427.18;102400;279;96401;-55
2023/07/11 00:36:27;;;;;;;8.40;4.80;;;;;;;17.72;71.10;100419.63;102494;279;98429;-55
2023/07/11 00:39:11;;;;;;;6.30;4.00;;;;;;;17.69;71.44;100404.37;102502;279;120155;-53
2023/07/11 00:41:58;;;;;;;8.90;4.90;;;;;;;17.64;71.84;100406.61;102500;279;104575;-55
2023/07/11 00:44:53;;;;;;;9.30;5.10;;;;;;;17.65;72.07;100409.03;102501;279;113846;-55
2023/07/11 00:47:32;;;;;;;8.80;5.80;;;;;;;17.68;72.19;100406.54;102451;279;95691;-56
2023/07/11 00:50:11;;;;;;;19.50;7.60;;;;;;;17.73;71.95;100389.23;102515;279;97565;-55
2023/07/11 00:52:48;;;;;;;14.20;8.70;;;;;;;17.80;71.62;100391.58;102466;279;120965;-54
2023/07/11 00:55:24;;;;;;;20.30;9.40;;;;;;;17.83;71.16;100389.56;102469;279;105520;-52
2023/07/11 00:58:06;;;;;;;12.10;6.60;;;;;;;17.81;70.50;100384.34;102409;279;112259;-55
2023/07/11 01:00:46;;;;;;;8.10;4.10;;;;;;;17.81;70.09;100375.59;102424;279;94080;-56
2023/07/11 01:03:23;;;;;;;5.10;3.10;;;;;;;17.76;70.15;100371.42;102452;279;98283;-56
2023/07/11 01:06:01;;;;;;;5.90;3.80;;;;;;;17.75;69.80;100376.04;102456;279;120351;-53
2023/07/11 01:08:40;;;;;;;6.60;3.20;;;;;;;17.70;69.96;100370.02;102421;279;106077;-54
2023/07/11 01:11:25;;;;;;;10.50;6.20;;;;;;;17.67;69.82;100360.12;102364;279;114830;-54
2023/07/11 01:14:07;;;;;;;15.00;7.50;;;;;;;17.61;69.95;100344.70;102427;280;96771;-54
2023/07/11 01:16:56;;;;;;;9.50;6.10;;;;;;;17.50;70.21;100334.39;102344;279;97115;-55
2023/07/11 01:19:41;;;;;;;7.10;4.40;;;;;;;17.45;69.97;100333.52;102465;279;121250;-56
2023/07/11 01:22:26;;;;;;;7.50;3.80;;;;;;;17.30;70.06;100341.12;102442;279;105519;-55
2023/07/11 01:25:08;;;;;;;10.10;5.70;;;;;;;17.20;70.24;100340.05;102551;279;114852;-54
2023/07/11 01:27:49;;;;;;;9.00;5.30;;;;;;;17.15;70.36;100334.96;102441;280;96393;-53
2023/07/11 01:30:28;;;;;;;8.90;4.90;;;;;;;17.08;70.18;100330.08;102478;280;96735;-56
2023/07/11 01:33:07;;;;;;;4.90;3.10;;;;;;;17.10;70.18;100324.26;102458;279;120959;-55
2023/07/11 01:35:48;;;;;;;4.70;2.90;;;;;;;17.12;70.38;100330.14;102423;279;106569;-54
2023/07/11 01:38:27;;;;;;;5.90;3.90;;;;;;;17.15;70.46;100328.88;102395;279;114472;-54
2023/07/11 01:41:02;;;;;;;5.50;2.30;;;;;;;17.16;70.40;100332.90;102383;279;97160;-54
2023/07/11 01:43:44;;;;;;;3.30;2.50;;;;;;;17.20;70.59;100338.59;102411;280;97222;-56
2023/07/11 01:46:25;;;;;;;5.20;2.40;;;;;;;17.24;70.41;100334.28;102362;279;119511;-54
2023/07/11 01:49:09;;;;;;;3.60;2.70;;;;;;;17.21;70.56;100340.89;102402;280;104714;-53
2023/07/11 01:51:49;;;;;;;3.70;2.70;;;;;;;17.23;70.52;100341.53;102338;280;113963;-54
2023/07/11 01:54:28;;;;;;;3.40;2.40;;;;;;;17.23;70.70;100336.31;102359;280;95630;-55
2023/07/11 01:57:07;;;;;;;4.40;2.80;;;;;;;17.24;70.83;100338.52;102395;279;97441;-55
2023/07/11 01:59:46;;;;;;;3.90;2.40;;;;;;;17.22;70.98;100348.29;102401;280;120214;-56
2023/07/11 02:02:24;;;;;;;4.90;2.50;;;;;;;17.21;71.13;100341.42;102383;280;106107;-56
2023/07/11 02:05:00;;;;;;;4.10;2.80;;;;;;;17.22;71.02;100328.69;102457;280;113624;-56
2023/07/11 02:07:39;;;;;;;4.90;2.40;;;;;;;17.23;71.32;100332.05;102486;279;93398;-56
2023/07/11 02:10:25;;;;;;;3.50;2.30;;;;;;;17.22;71.12;100344.03;102500;280;97171;-56
2023/07/11 02:12:59;;;;;;;3.00;2.50;;;;;;;17.21;71.38;100345.92;102389;280;120589;-55
2023/07/11 02:15:40;;;;;;;3.80;2.70;;;;;;;17.16;71.43;100330.55;102482;280;105118;-56
2023/07/11 02:18:22;;;;;;;3.80;2.40;;;;;;;17.10;71.73;100328.00;102408;279;114919;-56
2023/07/11 02:20:59;;;;;;;4.10;2.60;;;;;;;17.09;71.72;100327.00;102442;279;96865;-56
2023/07/11 02:23:41;;;;;;;3.80;2.40;;;;;;;17.11;71.67;100330.54;102436;279;97906;-56
2023/07/11 02:26:23;;;;;;;5.80;2.40;;;;;;;17.09;71.67;100330.65;102387;279;121663;-56
2023/07/11 02:29:03;;;;;;;3.30;2.70;;;;;;;17.10;71.98;100328.12;102398;279;104903;-54
2023/07/11 02:31:47;;;;;;;2.80;2.30;;;;;;;17.07;72.69;100334.80;102357;280;115013;-53
2023/07/11 02:34:29;;;;;;;3.60;2.60;;;;;;;16.95;73.10;100343.83;102374;279;96780;-55
2023/07/11 02:37:05;;;;;;;3.20;2.40;;;;;;;16.95;73.33;100345.95;102391;280;97935;-56
2023/07/11 02:39:41;;;;;;;3.40;2.80;;;;;;;16.93;74.01;100349.83;102429;280;119354;-54
2023/07/11 02:42:17;;;;;;;3.00;2.40;;;;;;;16.95;74.24;100340.05;102368;280;105864;-55
2023/07/11 02:45:00;;;;;;;3.60;2.30;;;;;;;16.89;74.58;100330.98;102422;280;113697;-56
2023/07/11 02:47:44;;;;;;;4.60;2.60;;;;;;;16.86;75.13;100335.88;102365;280;96726;-56
2023/07/11 02:50:29;;;;;;;5.10;2.80;;;;;;;16.90;74.90;100342.27;102429;280;98525;-56
2023/07/11 02:53:09;;;;;;;4.10;2.80;;;;;;;16.88;75.10;100345.86;102396;280;120276;-56
2023/07/11 02:55:45;;;;;;;4.40;2.60;;;;;;;16.85;75.11;100346.00;102482;280;105764;-56
2023/07/11 02:58:25;;;;;;;4.30;2.50;;;;;;;16.83;75.30;100351.45;102446;280;114374;-56
2023/07/11 03:01:05;;;;;;;6.90;3.00;;;;;;;16.74;75.85;100359.33;102432;280;97366;-56
2023/07/11 03:03:41;;;;;;;5.30;2.50;;;;;;;16.81;75.94;100362.04;102232;281;97771;-55
2023/07/11 03:06:19;;;;;;;3.50;2.80;;;;;;;16.82;75.88;100367.14;102395;280;119587;-54
2023/07/11 03:08:58;;;;;;;4.40;3.20;;;;;;;16.86;75.73;100379.27;102448;279;104706;-55
2023/07/11 03:11:35;;;;;;;5.70;3.40;;;;;;;16.92;75.83;100380.36;102247;281;114470;-53
2023/07/11 03:14:09;;;;;;;6.00;3.10;;;;;;;16.97;75.75;100369.80;102422;280;93343;-56
2023/07/11 03:16:50;;;;;;;5.20;3.00;;;;;;;17.01;75.75;100363.39;102390;280;97144;-57
2023/07/11 03:19:31;;;;;;;4.70;3.30;;;;;;;17.01;75.65;100370.19;102184;279;121588;-56
2023/07/11 03:22:09;;;;;;;4.90;3.40;;;;;;;17.01;75.46;100369.31;102390;279;104097;-56
2023/07/11 03:24:47;;;;;;;4.90;2.90;;;;;;;17.03;75.66;100375.42;102394;280;112564;-56
2023/07/11 03:27:27;;;;;;;5.90;3.20;;;;;;;17.11;75.44;100382.23;102374;279;95174;-56
2023/07/11 03:30:04;;;;;;;5.20;3.40;;;;;;;17.16;75.50;100383.67;102249;280;97061;-56
2023/07/11 03:32:39;;;;;;;5.70;3.10;;;;;;;17.18;75.35;100391.66;102382;280;121067;-56
2023/07/11 03:35:14;;;;;;;3.20;2.90;;;;;;;17.17;75.60;100395.20;102467;279;105312;-54
2023/07/11 03:37:49;;;;;;;5.30;3.50;;;;;;;17.16;75.39;100409.30;102424;280;112439;-55
2023/07/11 03:40:25;;;;;;;6.70;3.80;;;;;;;17.18;75.27;100407.70;102476;279;94403;-57
2023/07/11 03:43:10;;;;;;;4.50;3.10;;;;;;;17.18;75.19;100413.27;102510;279;97618;-56
2023/07/11 03:45:49;;;;;;;4.60;3.10;;;;;;;17.18;75.06;100411.73;102480;280;120807;-54
2023/07/11 03:48:35;;;;;;;4.20;3.50;;;;;;;17.17;75.18;100413.90;102475;280;104398;-54
2023/07/11 03:51:15;;;;;;;4.70;3.20;;;;;;;17.15;74.88;100419.56;102396;279;113580;-54
2023/07/11 03:53:59;;;;;;;5.90;3.10;;;;;;;17.17;74.82;100416.30;102432;280;97186;-55
2023/07/11 03:56:40;;;;;;;4.40;3.30;;;;;;;17.18;74.82;100419.02;102371;279;97702;-57
2023/07/11 03:59:22;;;;;;;4.40;3.10;;;;;;;17.21;74.96;100421.86;102446;279;119438;-56
2023/07/11 04:01:56;;;;;;;5.30;3.30;;;;;;;17.23;74.88;100425.20;102391;279;105434;-56
2023/07/11 04:04:35;;;;;;;3.50;3.10;;;;;;;17.25;74.94;100430.77;102424;279;114401;-54
2023/07/11 04:07:10;;;;;;;9.30;3.70;;;;;;;17.25;74.93;100428.70;102430;279;94479;-54
2023/07/11 04:09:47;;;;;;;6.30;3.40;;;;;;;17.24;74.87;100425.82;102476;279;96598;-55
2023/07/11 04:12:32;;;;;;;5.80;3.60;;;;;;;17.24;75.03;100431.52;102394;279;120290;-55
2023/07/11 04:15:08;;;;;;;5.60;3.10;;;;;;;17.25;75.09;100439.66;102398;279;105203;-55
2023/07/11 04:17:47;;;;;;;4.30;3.20;;;;;;;17.27;74.99;100441.70;102404;280;114623;-55
2023/07/11 04:20:23;;;;;;;5.00;2.80;;;;;;;17.27;75.07;100442.62;102470;279;95263;-54
2023/07/11 04:23:01;;;;;;;5.10;2.90;;;;;;;17.27;75.15;100451.48;102452;279;97370;-55
2023/07/11 04:25:43;;;;;;;5.60;3.20;;;;;;;17.30;75.10;100460.39;102455;279;120115;-55
2023/07/11 04:28:21;;;;;;;6.90;2.80;;;;;;;17.27;75.17;100466.17;102469;279;106366;-55
2023/07/11 04:31:00;;;;;;;4.30;3.10;;;;;;;17.29;75.18;100463.34;102532;279;114299;-57
2023/07/11 04:33:35;;;;;;;6.30;3.10;;;;;;;17.31;75.11;100458.35;102411;268;96835;-56
2023/07/11 04:36:18;;;;;;;6.50;3.10;;;;;;;17.37;75.24;100456.36;102449;279;95674;-55
2023/07/11 04:38:58;;;;;;;6.00;3.20;;;;;;;17.37;75.33;100457.63;102474;279;121906;-56
2023/07/11 04:41:35;;;;;;;4.50;2.70;;;;;;;17.39;75.29;100453.70;102270;279;104203;-55
2023/07/11 04:44:19;;;;;;;8.50;3.00;;;;;;;17.37;75.20;100455.41;102413;279;113703;-56
2023/07/11 04:46:53;;;;;;;3.90;2.30;;;;;;;17.42;75.11;100454.99;102429;279;95163;-56
2023/07/11 04:49:32;;;;;;;3.70;2.70;;;;;;;17.53;75.03;100459.39;102422;279;98106;-57
2023/07/11 04:52:12;;;;;;;4.90;2.40;;;;;;;17.62;75.01;100468.30;102424;279;120404;-56
2023/07/11 04:54:46;;;;;;;4.10;2.50;;;;;;;17.72;74.80;100472.92;102461;279;105248;-55
2023/07/11 04:57:21;;;;;;;4.90;2.20;;;;;;;17.80;74.55;100473.02;102452;279;114621;-54
2023/07/11 04:59:57;;;;;;;7.30;3.10;;;;;;;17.81;74.32;100463.54;102435;279;96277;-54
2023/07/11 05:02:37;;;;;;;3.80;2.40;;;;;;;17.81;74.28;100461.61;102417;279;97140;-54
2023/07/11 05:05:12;;;;;;;3.70;2.50;;;;;;;17.86;73.97;100453.66;102468;279;120004;-56
2023/07/11 05:07:46;;;;;;;3.10;2.20;;;;;;;17.91;73.79;100447.27;102453;279;106419;-56
2023/07/11 05:10:24;;;;;;;;;;;;;;;17.94;73.53;100445.45;102459;279;114854;-56
2023/07/11 05:13:01;;;;;;;4.10;2.30;;;;;;;17.98;73.60;100444.01;102413;279;94892;-58
2023/07/11 05:15:43;;;;;;;5.60;2.10;;;;;;;18.06;73.53;100442.17;102509;279;98358;-55
2023/07/11 05:18:20;;;;;;;4.50;2.20;;;;;;;18.40;73.57;100445.56;101931;281;525533;-55
2023/07/11 05:21:01;;;;;;;5.10;2.40;;;;;;;18.87;73.32;100442.87;102432;279;103289;-57
2023/07/11 05:23:38;;;;;;;2.80;2.40;;;;;;;19.85;72.63;100435.63;102359;279;113936;-57
2023/07/11 05:26:16;;;;;;;3.10;2.10;;;;;;;20.10;71.26;100431.39;102410;279;95419;-54
2023/07/11 05:28:52;;;;;;;4.00;2.20;;;;;;;20.01;70.79;100439.25;102439;268;96872;-55
2023/07/11 05:31:27;;;;;;;7.60;2.60;;;;;;;19.80;70.61;100434.90;102428;279;119768;-54
2023/07/11 05:34:10;;;;;;;5.60;2.00;;;;;;;19.67;70.43;100427.56;102432;280;105733;-55
2023/07/11 05:36:51;;;;;;;4.40;2.40;;;;;;;19.58;70.10;100424.88;102379;280;113206;-53
2023/07/11 05:39:31;;;;;;;6.50;2.40;;;;;;;19.49;69.63;100422.40;102370;280;94415;-54
2023/07/11 05:42:07;;;;;;;6.30;2.90;;;;;;;19.40;69.39;100423.41;102404;279;98214;-56
2023/07/11 05:44:43;;;;;;;4.40;2.70;;;;;;;19.34;69.39;100428.52;102416;280;120057;-56
2023/07/11 05:47:21;;;;;;;7.10;3.50;;;;;;;19.31;69.45;100431.93;102435;280;105872;-56
2023/07/11 05:49:58;;;;;;;7.40;3.80;;;;;;;19.23;69.74;100435.73;102273;280;112972;-56
2023/07/11 05:52:39;;;;;;;6.30;3.90;;;;;;;19.14;69.65;100445.01;102433;280;96702;-56
2023/07/11 05:55:17;;;;;;;20.20;5.00;;;;;;;19.04;70.11;100449.25;102430;280;95416;-56
2023/07/11 05:57:53;;;;;;;14.10;3.90;;;;;;;18.95;70.01;100456.56;102443;280;121239;-56
2023/07/11 06:00:29;;;;;;;17.90;4.40;;;;;;;18.88;70.12;100457.69;102493;280;105971;-55
2023/07/11 06:03:04;;;;;;;5.90;2.20;;;;;;;18.81;70.26;100468.27;102458;280;114798;-57
2023/07/11 06:05:45;;;;;;;3.20;2.60;;;;;;;18.80;70.40;100478.06;102436;280;94821;-56
2023/07/11 06:08:25;;;;;;;3.20;1.80;;;;;;;18.82;70.78;100479.20;102414;280;98165;-57
2023/07/11 06:11:05;;;;;;;2.40;1.80;;;;;;;18.88;70.75;100477.98;102416;280;119121;-55
2023/07/11 06:13:45;;;;;;;3.00;2.00;;;;;;;18.96;70.57;100478.28;102424;280;104472;-55
2023/07/11 06:16:28;;;;;;;5.00;2.30;;;;;;;18.94;70.56;100478.84;102402;279;114265;-55
2023/07/11 06:19:05;;;;;;;8.70;2.70;;;;;;;18.82;70.72;100482.19;102438;280;95059;-55
2023/07/11 06:21:42;;;;;;;9.40;2.90;;;;;;;18.85;70.60;100477.66;102436;280;97176;-54
2023/07/11 06:24:23;;;;;;;4.40;2.50;;;;;;;18.89;70.79;100476.86;102452;280;120070;-54
2023/07/11 06:26:58;;;;;;;4.20;2.60;;;;;;;18.91;70.82;100476.52;102400;280;106007;-54
2023/07/11 06:29:35;;;;;;;4.40;2.40;;;;;;;18.98;71.17;100479.73;102399;280;114872;-56
2023/07/11 06:32:12;;;;;;;3.20;2.00;;;;;;;19.02;71.42;100481.91;102220;280;95529;-55
2023/07/11 06:34:50;;;;;;;4.00;2.10;;;;;;;19.10;71.71;100475.92;102466;280;97659;-55
2023/07/11 06:37:26;;;;;;;3.20;2.10;;;;;;;19.15;72.13;100480.03;102232;280;121256;-54
2023/07/11 06:40:08;;;;;;;3.60;2.20;;;;;;;19.17;72.31;100482.38;102291;280;105258;-57
2023/07/11 06:42:52;;;;;;;2.40;2.10;;;;;;;19.12;72.29;100483.54;102369;280;113065;-57
2023/07/11 06:45:33;;;;;;;4.80;2.10;;;;;;;19.02;71.98;100485.08;102384;280;95352;-55
2023/07/11 06:48:11;;;;;;;6.10;2.70;;;;;;;18.99;72.14;100486.66;102465;279;97932;-63
2023/07/11 06:50:52;;;;;;;3.00;2.40;;;;;;;18.97;72.22;100486.99;102433;280;119518;-65
2023/07/11 06:53:30;;;;;;;3.20;2.40;;;;;;;19.04;72.14;100494.20;102455;280;104758;-63
2023/07/11 06:56:07;;;;;;;2.70;2.10;;;;;;;19.04;72.08;100499.86;102353;280;113479;-62
2023/07/11 06:58:47;;;;;;;4.50;2.10;;;;;;;19.07;72.12;100505.45;102458;280;94067;-63
2023/07/11 07:04:39;;;;;;;2.60;2.30;;;;;;;19.05;72.11;100507.27;102546;278;121058;-57
2023/07/11 07:07:31;;;;;;;5.10;2.60;;;;;;;19.12;72.26;100514.15;102578;277;105610;-58
2023/07/11 07:10:12;;;;;;;3.80;2.10;;;;;;;19.28;72.50;100517.00;102517;277;113067;-59
2023/07/11 07:12:51;;;;;;;2.70;2.30;;;;;;;19.36;72.43;100523.33;102491;278;96594;-59
2023/07/11 07:15:31;;;;;;;3.70;2.30;;;;;;;19.37;72.65;100522.09;102543;277;97785;-55
2023/07/11 07:18:07;;;;;;;3.40;2.50;;;;;;;19.24;72.15;100521.46;102526;277;120353;-58
2023/07/11 07:20:48;;;;;;;2.80;2.20;;;;;;;19.18;71.93;100524.25;102566;277;105937;-59
2023/07/11 07:23:28;;;;;;;3.80;2.20;;;;;;;19.12;71.87;100528.71;102559;277;114774;-59
2023/07/11 07:26:05;;;;;;;3.80;2.30;;;;;;;19.09;71.94;100530.17;102578;277;92802;-59
2023/07/11 07:28:47;;;;;;;4.50;2.50;;;;;;;19.05;72.14;100532.36;102530;277;96531;-58
2023/07/11 07:31:27;;;;;;;3.00;2.30;;;;;;;19.02;72.08;100527.30;102543;277;120849;-59
2023/07/11 07:34:02;;;;;;;3.00;2.60;;;;;;;18.99;72.02;100535.77;102582;277;105574;-59
2023/07/11 07:36:45;;;;;;;3.50;2.20;;;;;;;18.90;72.03;100541.55;102649;277;114445;-60
2023/07/11 07:39:20;;;;;;;3.40;2.60;;;;;;;18.87;71.95;100542.86;102459;278;98796;-57
2023/07/11 07:42:00;;;;;;;2.70;2.00;;;;;;;18.85;72.02;100538.11;102635;277;95378;-59
2023/07/11 07:44:42;;;;;;;2.40;2.20;;;;;;;18.92;72.04;100538.75;102520;277;119935;-59
2023/07/11 07:47:20;;;;;;;3.90;2.10;;;;;;;19.07;72.09;100540.33;102587;277;104445;-58
2023/07/11 07:50:02;;;;;;;3.40;2.40;;;;;;;19.21;72.11;100539.92;102415;277;114803;-58
2023/07/11 07:52:41;;;;;;;3.60;2.20;;;;;;;19.30;72.09;100539.62;102489;277;96402;-59
2023/07/11 07:55:22;;;;;;;5.70;2.50;;;;;;;19.41;72.07;100541.68;102556;277;96096;-58
2023/07/11 07:58:02;;;;;;;3.10;2.20;;;;;;;19.55;72.01;100543.22;102559;277;121129;-59
2023/07/11 08:00:37;;;;;;;2.60;2.00;;;;;;;19.72;71.95;100548.58;102571;277;104128;-59
2023/07/11 08:03:17;;;;;;;3.90;2.20;;;;;;;19.75;71.65;100552.09;102546;277;114124;-57
2023/07/11 08:05:54;;;;;;;3.40;2.00;;;;;;;19.75;71.23;100554.36;102484;277;93053;-55
2023/07/11 08:08:32;;;;;;;6.20;2.20;;;;;;;19.70;71.25;100557.59;102580;277;96501;-58
2023/07/11 08:11:20;;;;;;;5.10;2.00;;;;;;;19.77;71.27;100555.11;102511;277;121155;-57
2023/07/11 08:13:56;;;;;;;4.80;2.30;;;;;;;19.90;71.16;100560.39;102514;278;106150;-58
2023/07/11 08:16:32;;;;;;;3.40;2.10;;;;;;;20.00;70.75;100564.23;102604;277;113389;-59
2023/07/11 08:19:08;;;;;;;2.80;1.80;;;;;;;20.03;70.35;100567.98;102583;277;92083;-58
2023/07/11 08:21:47;;;;;;;2.90;2.00;;;;;;;20.09;70.24;100569.18;102613;277;98410;-58
2023/07/11 08:24:28;;;;;;;2.50;2.00;;;;;;;20.04;69.85;100572.84;102541;277;119874;-59
2023/07/11 08:27:06;;;;;;;3.80;1.80;;;;;;;20.10;69.98;100568.86;102544;277;104834;-58
2023/07/11 08:29:51;;;;;;;4.10;2.80;;;;;;;20.11;69.91;100570.27;102541;277;113373;-58
2023/07/11 08:32:29;;;;;;;3.00;2.20;;;;;;;20.09;69.82;100575.71;102560;277;94362;-57
2023/07/11 08:35:09;;;;;;;4.30;2.00;;;;;;;20.24;69.58;100575.79;102534;277;97530;-58
2023/07/11 08:37:46;;;;;;;4.90;2.50;;;;;;;20.36;69.35;100573.74;102551;277;118147;-58
2023/07/11 08:40:27;;;;;;;6.00;2.20;;;;;;;20.41;69.37;100574.82;102501;277;106249;-58
2023/07/11 08:43:04;;;;;;;3.60;2.00;;;;;;;20.45;69.18;100575.48;102530;277;112356;-58
2023/07/11 08:45:49;;;;;;;3.50;2.00;;;;;;;20.44;68.94;100576.45;102596;277;92873;-58
2023/07/11 08:48:34;;;;;;;3.90;2.00;;;;;;;20.56;68.89;100577.52;102562;277;98283;-59
2023/07/11 08:51:22;;;;;;;4.60;2.10;;;;;;;20.73;68.73;100582.80;102607;277;120855;-60
2023/07/11 08:54:05;;;;;;;4.90;2.20;;;;;;;20.69;67.91;100584.43;102574;277;105041;-56
2023/07/11 08:56:47;;;;;;;3.10;2.20;;;;;;;20.71;67.60;100584.73;102594;277;112277;-58
2023/07/11 08:59:43;;;;;;;6.40;2.30;;;;;;;20.92;67.77;100585.33;102561;277;93761;-59
2023/07/11 09:02:38;;;;;;;4.50;2.30;;;;;;;21.11;67.90;100584.41;102580;277;97548;-59
2023/07/11 09:05:23;;;;;;;3.10;1.90;;;;;;;21.31;67.47;100583.70;102551;277;119990;-57
2023/07/11 09:08:07;;;;;;;3.00;2.00;;;;;;;21.44;67.18;100584.42;102576;277;104902;-58
2023/07/11 09:10:55;;;;;;;3.60;2.30;;;;;;;21.61;66.83;100582.21;102474;278;115291;-59
2023/07/11 09:13:56;;;;;;;3.20;2.40;;;;;;;21.79;66.51;100586.86;102549;277;93648;-59
2023/07/11 09:16:41;;;;;;;2.60;1.90;;;;;;;22.01;66.00;100590.47;102584;277;97267;-59
2023/07/11 09:19:43;;;;;;;3.60;2.40;;;;;;;22.15;65.44;100587.88;102566;277;120861;-59
2023/07/11 09:22:32;;;;;;;3.10;1.80;;;;;;;22.38;65.31;100590.35;102557;277;106218;-59
2023/07/11 09:25:25;;;;;;;2.60;2.20;;;;;;;22.56;64.74;100592.53;102548;277;115643;-59
2023/07/11 09:28:07;;;;;;;2.90;1.60;;;;;;;22.68;64.18;100591.02;102525;277;94444;-59
2023/07/11 09:30:56;;;;;;;2.00;1.70;;;;;;;22.77;63.57;100589.64;102595;277;98022;-59
2023/07/11 09:33:41;;;;;;;2.70;1.90;;;;;;;22.96;62.85;100587.95;102544;277;120208;-59
2023/07/11 09:36:23;;;;;;;3.90;1.50;;;;;;;23.10;62.53;100579.12;102598;277;104744;-57
2023/07/11 09:39:17;;;;;;;2.80;1.70;;;;;;;23.28;62.23;100574.46;102566;277;114435;-58
2023/07/11 09:42:05;;;;;;;2.30;1.30;;;;;;;23.61;61.90;100569.39;102561;277;93847;-58
2023/07/11 09:44:40;;;;;;;2.00;1.50;;;;;;;24.18;61.98;100563.22;102546;277;98464;-61
2023/07/11 09:47:20;;;;;;;2.70;1.50;;;;;;;24.69;61.04;100556.77;102657;277;121057;-59
2023/07/11 09:49:59;;;;;;;2.30;1.50;;;;;;;24.99;60.25;100551.88;102616;277;105045;-59
2023/07/11 09:52:35;;;;;;;2.20;1.50;;;;;;;25.37;59.74;100545.28;102622;277;112978;-59
2023/07/11 09:55:30;;;;;;;3.70;2.00;;;;;;;25.84;58.95;100540.08;102638;277;93791;-59
2023/07/11 09:58:15;;;;;;;1.70;1.50;;;;;;;26.19;57.68;100539.80;102612;277;97373;-61
2023/07/11 10:00:52;;;;;;;1.60;1.30;;;;;;;26.18;56.37;100544.24;102617;277;120812;-60
2023/07/11 10:03:30;;;;;;;2.40;1.40;;;;;;;26.15;55.44;100545.42;102581;277;104846;-61
2023/07/11 10:06:07;;;;;;;2.20;1.50;;;;;;;25.99;54.47;100548.23;102577;277;114286;-61
2023/07/11 10:08:54;;;;;;;2.80;1.40;;;;;;;25.89;54.45;100544.40;102563;277;94900;-61
2023/07/11 10:11:33;;;;;;;2.20;1.40;;;;;;;25.64;54.31;100536.60;102596;275;97816;-60
2023/07/11 10:14:21;;;;;;;2.20;1.50;;;;;;;25.63;54.26;100541.65;102578;277;121284;-61
2023/07/11 10:17:03;;;;;;;2.90;1.70;;;;;;;25.83;54.53;100539.25;102624;278;103835;-61
2023/07/11 10:19:45;;;;;;;2.80;1.70;;;;;;;26.16;54.66;100540.92;102529;277;114659;-62
2023/07/11 10:22:33;;;;;;;1.90;1.50;;;;;;;26.48;53.81;100544.38;102607;277;94504;-60
2023/07/11 10:25:21;;;;;;;2.20;1.60;;;;;;;26.53;53.29;100542.46;102622;277;96149;-61
2023/07/11 10:28:04;;;;;;;2.00;1.50;;;;;;;26.79;53.19;100540.65;102660;277;120023;-60
2023/07/11 10:30:49;;;;;;;1.80;1.40;;;;;;;27.15;52.91;100533.51;102669;277;106161;-56
2023/07/11 10:33:35;;;;;;;2.20;1.60;;;;;;;27.27;52.05;100534.26;102658;278;113869;-56
2023/07/11 10:36:23;;;;;;;2.20;1.60;;;;;;;27.41;51.37;100534.70;102623;277;93758;-57
2023/07/11 10:39:03;;;;;;;1.80;1.60;;;;;;;27.35;50.88;100531.03;102598;277;98212;-58
2023/07/11 10:41:46;;;;;;;1.90;1.30;;;;;;;27.26;49.85;100525.77;102566;277;121533;-57
2023/07/11 10:44:37;;;;;;;1.90;1.60;;;;;;;27.52;49.96;100525.02;102555;277;106377;-56
2023/07/11 10:47:24;;;;;;;2.30;1.50;;;;;;;27.72;49.71;100512.08;102539;277;113857;-57
2023/07/11 10:50:06;;;;;;;2.00;1.80;;;;;;;27.89;49.55;100514.54;102536;277;93201;-57
2023/07/11 10:52:45;;;;;;;2.50;1.50;;;;;;;28.06;49.00;100521.41;102541;266;96247;-62
2023/07/11 10:55:32;;;;;;;2.30;1.60;;;;;;;28.02;47.99;100518.69;102581;277;121128;-63
2023/07/11 10:58:10;;;;;;;3.90;1.60;;;;;;;27.88;47.42;100519.88;102559;277;105295;-58
2023/07/11 11:01:00;;;;;;;2.70;1.70;;;;;;;27.79;47.23;100517.86;102552;277;114087;-57
2023/07/11 11:03:57;;;;;;;2.00;1.60;;;;;;;27.70;47.26;100521.89;102544;277;94896;-58
2023/07/11 11:06:54;;;;;;;1.80;1.20;;;;;;;27.27;45.65;100523.54;102479;279;96335;-55
2023/07/11 11:09:42;;;;;;;1.70;1.40;;;;;;;26.70;45.39;100529.98;102360;279;120070;-56
2023/07/11 11:12:35;;;;;;;3.20;2.00;;;;;;;26.41;45.45;100530.09;102479;267;105980;-57
2023/07/11 11:15:30;;;;;;;2.30;1.40;;;;;;;26.46;45.84;100527.27;102482;279;113162;-57
2023/07/11 11:18:25;;;;;;;2.50;1.40;;;;;;;26.52;46.17;100528.50;102393;279;94106;-57
2023/07/11 11:21:15;;;;;;;2.00;1.50;;;;;;;26.54;46.65;100527.38;102511;279;97945;-58
2023/07/11 11:24:18;;;;;;;2.90;1.60;;;;;;;26.42;47.23;100525.64;102415;279;121120;-57
2023/07/11 11:27:10;;;;;;;1.80;1.40;;;;;;;26.31;47.70;100523.98;102476;267;103869;-57
2023/07/11 11:30:01;;;;;;;3.20;1.70;;;;;;;26.28;47.73;100523.61;102389;276;114833;-56
2023/07/11 11:32:48;;;;;;;2.50;1.80;;;;;;;26.38;48.01;100524.13;102451;279;94026;-55
2023/07/11 11:35:38;;;;;;;2.60;1.80;;;;;;;26.73;48.33;100526.91;102427;279;96955;-58
2023/07/11 11:38:38;;;;;;;2.40;1.90;;;;;;;26.85;48.40;100532.96;102398;279;121274;-57
2023/07/11 11:41:19;;;;;;;1.90;1.70;;;;;;;26.75;48.12;100529.77;102476;279;105133;-55
2023/07/11 11:44:02;;;;;;;2.70;1.80;;;;;;;26.56;48.05;100526.02;102418;279;114090;-55
2023/07/11 11:46:39;;;;;;;2.90;1.90;;;;;;;26.67;48.32;100522.92;102403;279;94064;-58
2023/07/11 11:49:20;;;;;;;2.20;2.00;;;;;;;26.88;48.52;100523.16;102426;279;97682;-57
2023/07/11 11:52:00;;;;;;;2.60;2.30;;;;;;;26.97;48.45;100518.14;102430;279;120514;-57
2023/07/11 11:54:43;;;;;;;3.90;2.00;;;;;;;27.05;48.29;100514.27;102461;279;106265;-57
2023/07/11 11:57:28;;;;;;;3.20;1.90;;;;;;;26.93;48.20;100517.84;102510;279;114333;-56
2023/07/11 12:00:40;;;;;;;2.80;2.10;;;;;;;26.61;47.88;100511.23;102457;279;94313;-55
2023/07/11 12:03:50;;;;;;;2.70;2.10;;;;;;;26.57;48.34;100514.86;102433;279;97130;-58
2023/07/11 12:06:35;;;;;;;4.30;2.00;;;;;;;27.11;48.57;100506.15;102503;279;120285;-54
2023/07/11 12:09:48;;;;;;;2.40;2.00;;;;;;;27.31;48.00;100501.96;102523;279;106075;-54
2023/07/11 12:12:48;;;;;;;4.20;2.40;;;;;;;27.10;47.10;100502.06;102427;279;113771;-55
2023/07/11 12:15:37;;;;;;;2.30;2.10;;;;;;;26.72;47.17;100501.81;102504;279;95064;-54
2023/07/11 12:18:48;;;;;;;3.40;2.40;;;;;;;26.61;47.18;100503.86;102352;279;98094;-53
2023/07/11 12:21:45;;;;;;;2.90;2.40;;;;;;;26.69;47.56;100502.44;102405;279;119556;-57
2023/07/11 12:24:45;;;;;;;2.60;2.10;;;;;;;26.75;48.00;100500.38;102484;279;104748;-58
2023/07/11 12:28:04;;;;;;;2.70;2.00;;;;;;;26.80;47.87;100500.42;102502;279;114741;-57
2023/07/11 12:30:48;;;;;;;2.50;2.20;;;;;;;26.88;47.76;100493.45;102458;279;93934;-61